Nearby METAR Reports

Here are local weather reports from nearby weather stations and airports.

KHFD - Hartford/Brainar, Connecticut, USA
Distance from station: NE 5mi, 8km
Updated: Fri, 08/18/2017 4:53am EDT
Overcast
Overcast
 Wind from SSE
Wind: SSE 5 mph , 7 km/h
Temperature: 70°F , 21°C
Dew Point: 66°F , 19°C
Humidity: 88%
Barometer: 29.93 inHg , 1013.5 hPa
Clouds: Overcast
Visibility: 10 miles , 16 km
Cloud details: Few Clouds 1700 ft
Mostly cloudy 2200 ft
Overcast 3900 ft
2017/08/18 08:53 KHFD 180853Z 15004KT 10SM FEW017 BKN022 OVC039 21/19 A2993 RMK AO2 SLP135 T02110189 56010
KMMK - Meriden, Connecticut, USA
Distance from station: SSW 13mi, 21km
Updated: Fri, 08/18/2017 4:53am EDT
Overcast
Overcast
 Wind from SSE
Wind: SSE 3 mph , 6 km/h
Temperature: 70°F , 21°C
Dew Point: 68°F , 20°C
Humidity: 94%
Barometer: 29.93 inHg , 1013.5 hPa
Clouds: Overcast
Visibility: 10 miles , 16 km
Cloud details: Partly cloudy 900 ft
Overcast 1500 ft
2017/08/18 08:53 KMMK 180853Z AUTO 15003KT 10SM SCT009 OVC015 21/20 A2993 RMK AO2 SLP134 T02110200 56012 TSNO
 
KBDL - Windsor Locks, Connecticut, USA
Distance from station: N 17mi, 28km
Updated: Fri, 08/18/2017 4:51am EDT
Overcast
Overcast
 Wind from SSE
Wind: SSE 6 mph , 9 km/h
Temperature: 70°F , 21°C
Dew Point: 64°F , 18°C
Humidity: 83%
Barometer: 29.94 inHg , 1013.9 hPa
Clouds: Overcast
Visibility: 10 miles , 16 km
Cloud details: Overcast 1000 ft
2017/08/18 08:51 KBDL 180851Z 16005KT 10SM OVC010 21/18 A2994 RMK AO2 SLP136 T02060178 56011 $
KSNC - Chester, Connecticut, USA
Distance from station: SSE 24mi, 38km
Updated: Sat, 08/12/2017 2:15pm EDT
NOT Current
Mostly cloudy
Mostly cloudy
 Wind from SW
Wind: SW 8 mph , 13 km/h
Temperature: 72°F , 22°C
Dew Point: 64°F , 18°C
Humidity: 78%
Barometer: 29.95 inHg , 1014.2 hPa
Clouds: Mostly cloudy
Visibility: 10 miles , 16 km
Cloud details: Mostly cloudy 1400 ft
Mostly cloudy 7000 ft
2017/08/12 18:15 KSNC 121815Z AUTO 22007KT 10SM BKN014 BKN070 22/18 A2995 RMK AO2
 
KOXC - Oxford/Waterbury, Connecticut, USA
Distance from station: SW 26mi, 42km
Updated: Fri, 08/18/2017 4:51am EDT
Mist, Overcast
Mist, Overcast
 Wind from SSE
Wind: SSE 9 mph , 15 km/h
Temperature: 70°F , 21°C
Dew Point: 70°F , 21°C
Humidity: 100%
Barometer: 29.95 inHg , 1014.2 hPa
Summary: Mist
Clouds: Overcast
Visibility: 2 1/2 miles , 2 km
Cloud details: Overcast 100 ft
2017/08/18 08:51 KOXC 180851Z AUTO 15008KT 2 1/2SM BR OVC001 21/21 A2995 RMK AO2 SLP147 T02060206 56007
KIJD - Willimantic, Connecticut, USA
Distance from station: E 28mi, 45km
Updated: Fri, 08/18/2017 4:52am EDT
Overcast
Overcast
 Wind from calm
Wind: Calm
Temperature: 66°F , 19°C
Dew Point: 63°F , 17°C
Humidity: 88%
Barometer: 29.96 inHg , 1014.6 hPa
Clouds: Overcast
Visibility: 10 miles , 16 km
Cloud details: Overcast 700 ft
2017/08/18 08:52 KIJD 180852Z AUTO 00000KT 10SM OVC007 19/17 A2996 RMK AO2 SLP142 T01890172 56010
 
KHVN - New Haven/Tweed, Connecticut, USA
Distance from station: SSW 30mi, 48km
Updated: Fri, 08/18/2017 4:53am EDT
Overcast
Overcast
 Wind from SSE
Wind: SSE 7 mph , 11 km/h
Temperature: 73°F , 23°C
Dew Point: 72°F , 22°C
Humidity: 94%
Barometer: 29.93 inHg , 1013.5 hPa
Clouds: Overcast
Visibility: 8 miles , 13 km
Cloud details: Overcast 700 ft
2017/08/18 08:53 KHVN 180853Z AUTO 15006KT 8SM OVC007 23/22 A2993 RMK AO2 SLP136 T02330217 56012
KBAF - Westfield, Massachusetts, USA
Distance from station: 0 33mi, 54km
Updated: Fri, 08/18/2017 4:53am EDT
Overcast
Overcast
 Wind from SSE
Wind: SSE 3 mph , 6 km/h
Temperature: 66°F , 19°C
Dew Point: 63°F , 17°C
Humidity: 88%
Barometer: 29.93 inHg , 1013.5 hPa
Clouds: Overcast
Visibility: 10 miles , 16 km
Cloud details: Overcast 1100 ft
2017/08/18 08:53 KBAF 180853Z AUTO 15003KT 10SM OVC011 19/17 A2993 RMK AO2 SLP134 T01940167 56007 TSNO
 
KCEF - Chicopee/Westove, Massachusetts, USA
Distance from station: NNE 37mi, 60km
Updated: Fri, 08/18/2017 4:58am EDT
Overcast
Overcast
 Wind from calm
Wind: Calm
Temperature: 66°F , 19°C
Dew Point: 59°F , 15°C
Humidity: 78%
Barometer: 29.93 inHg , 1013.5 hPa
Clouds: Overcast
Visibility: 10 miles , 16 km
Cloud details: Overcast 1300 ft
2017/08/18 08:58 KCEF 180858Z AUTO 00000KT 10SM OVC013 19/15 A2993 RMK AO2 SLP140 60000 T01930152 55010
KBDR - Bridgeport, Connecticut, USA
Distance from station: SSW 42mi, 67km
Updated: Fri, 08/18/2017 4:52am EDT
Mist, Overcast
Mist, Overcast
 Wind from SE
Wind: SE 7 mph , 11 km/h
Temperature: 73°F , 23°C
Dew Point: 72°F , 22°C
Humidity: 94%
Barometer: 29.92 inHg , 1013.2 hPa
Summary: Mist
Clouds: Overcast
Visibility: 6 miles , 10 km
Cloud details: Mostly cloudy 1300 ft
Mostly cloudy 2300 ft
Overcast 4100 ft
2017/08/18 08:52 KBDR 180852Z AUTO 13006KT 6SM BR BKN013 BKN023 OVC041 23/22 A2992 RMK AO2 RAB33E44 SLP131 P0000 60000 T02330217 58007
 
KGON - Groton/New Londo, Connecticut, USA
Distance from station: SE 42mi, 68km
Updated: Fri, 08/18/2017 4:56am EDT
Overcast
Overcast
 Wind from SE
Wind: SE 6 mph , 9 km/h
Temperature: 70°F , 21°C
Dew Point: 66°F , 19°C
Humidity: 88%
Barometer: 29.95 inHg , 1014.2 hPa
Clouds: Overcast
Visibility: 10 miles , 16 km
Cloud details: Overcast 600 ft
2017/08/18 08:56 KGON 180856Z AUTO 14005KT 10SM OVC006 21/19 A2995 RMK AO2 SLP141 T02110194 56010
KDXR - Danbury, Connecticut, USA
Distance from station: WSW 45mi, 73km
Updated: Fri, 08/18/2017 4:53am EDT
Mist, Mostly cloudy
Mist, Mostly cloudy
 Wind from SSE
Wind: SSE 6 mph , 9 km/h
Temperature: 72°F , 22°C
Dew Point: 70°F , 21°C
Humidity: 94%
Barometer: 29.93 inHg , 1013.5 hPa
Summary: Mist
Clouds: Mostly cloudy
Visibility: 5 miles , 8 km
Cloud details: Mostly cloudy 700 ft
2017/08/18 08:53 KDXR 180853Z AUTO 15005KT 5SM BR BKN007 22/21 A2993 RMK AO2 CIG 005V012 SLP132 T02220211 57010